Latest Weather Observations for Strahan

IDT60801

Issued at 4:01 am EST Wednesday 22 April 2015 (issued every 30 minutes, with the page automatically refreshed every 10 minutes)

About weather observations | Map of weather stations | Latest weather observations for TAS | Other Formats
Station Details ID: 097072 Name: STRAHAN AERODROME Lat: -42.16 Lon: 145.29 Height: 21.0 m
Data from the previous 72 hours. | See also: Recent months at Strahan
Date/Time
EST
Temp
°C
App
Temp
°C
Dew
Point
Rel
Hum
%
Delta-T
°C
Wind Press
QNH
hPa
Press
MSL
hPa
Rain
since 9 am
mm
Dir
 
Spd
km/h
Gust
km/h
Spd
kts
Gust
kts
22/04:00am 8.2 6.6 8.1 99 0.0 ENE 6 7 3 4 1030.0 1030.0 0.0
22/03:30am 8.5 6.0 8.4 99 0.0 NNE 11 13 6 7 1029.9 1029.9 0.0
22/03:15am 8.0 6.2 7.9 99 0.0 N 7 7 4 4 1030.0 1030.0 0.0
22/03:00am 7.8 6.1 7.7 99 0.0 NNW 6 7 3 4 1030.2 1030.2 0.0
22/02:45am 7.7 5.8 7.6 99 0.0 N 7 9 4 5 1030.3 1030.3 0.0
22/02:30am 7.9 6.3 7.8 99 0.0 NNE 6 7 3 4 1030.4 1030.4 0.0
22/02:00am 7.8 5.9 7.7 99 0.0 ENE 7 7 4 4 1030.6 1030.6 0.0
22/01:32am 8.3 7.1 8.2 99 0.0 NNE 4 6 2 3 1030.7 1030.7 0.0
22/01:30am 8.3 6.7 8.2 99 0.0 NNE 6 6 3 3 1030.7 1030.7 0.0
22/01:01am 8.1 6.5 8.0 99 0.0 ENE 6 7 3 4 1030.6 1030.6 0.0
22/01:00am 8.2 6.6 8.1 99 0.0 ENE 6 7 3 4 1030.6 1030.6 0.0
22/12:47am 8.1 6.5 8.0 99 0.0 ENE 6 6 3 3 1030.7 1030.7 0.0
22/12:30am 8.0 6.8 7.9 99 0.0 ENE 4 7 2 4 1030.9 1030.9 0.0
22/12:11am 7.7 7.1 7.6 99 0.0 CALM 0 6 0 3 1030.9 1030.9 0.0
22/12:00am 8.4 6.9 8.3 99 0.0 ENE 6 7 3 4 1031.0 1031.0 0.0
 
Date/Time
EST
Temp
°C
App
Temp
°C
Dew
Point
Rel
Hum
%
Delta-T
°C
Wind Press
QNH
hPa
Press
MSL
hPa
Rain
since 9 am
mm
Dir
 
Spd
km/h
Gust
km/h
Spd
kts
Gust
kts
21/11:30pm 9.0 7.1 8.9 99 0.0 NNE 9 13 5 7 1031.1 1031.1 0.0
21/11:00pm 9.2 7.3 9.1 99 0.0 NNE 9 11 5 6 1031.4 1031.4 0.0
21/10:30pm 9.4 7.6 9.3 99 0.0 NE 9 13 5 7 1031.5 1031.5 0.0
21/10:17pm 9.4 7.6 9.3 99 0.0 NNE 9 11 5 6 1031.6 1031.6 0.0
21/10:00pm 8.7 7.1 8.6 99 0.0 N 7 9 4 5 1031.8 1031.8 0.0
21/09:30pm 9.8 8.6 9.7 99 0.1 ENE 6 6 3 3 1032.0 1032.0 0.0
21/09:24pm 10.3 9.2 10.1 99 0.1 NE 6 6 3 3 1032.1 1032.1 0.0
21/09:13pm 9.5 8.6 9.4 99 0.0 N 4 6 2 3 1032.2 1032.2 0.0
21/09:00pm 9.8 8.6 9.7 99 0.0 N 6 7 3 4 1032.2 1032.2 0.0
21/08:33pm 9.7 7.9 9.6 99 0.0 N 9 9 5 5 1032.1 1032.1 0.0
21/08:30pm 9.7 7.9 9.6 99 0.0 N 9 9 5 5 1032.1 1032.1 0.0
21/08:00pm 10.1 8.4 9.8 98 0.1 N 9 9 5 5 1032.0 1032.0 0.0
21/07:30pm 10.3 10.3 9.7 96 0.3 CALM 0 0 0 0 1032.2 1032.2 0.0
21/07:00pm 10.8 9.5 10.0 95 0.4 SW 7 9 4 5 1032.1 1032.1 0.0
21/06:30pm 11.2 10.2 10.3 94 0.5 SSW 6 9 3 5 1032.0 1032.0 0.0
21/06:00pm 12.0 9.7 10.6 91 0.7 SW 13 15 7 8 1031.8 1031.8 0.0
21/05:30pm 13.2 11.9 11.1 87 1.1 SSW 9 11 5 6 1031.8 1031.8 0.0
21/05:00pm 13.7 12.8 11.4 86 1.2 S 7 13 4 7 1031.9 1031.9 0.0
21/04:41pm 13.9 13.0 11.4 85 1.3 S 7 11 4 6 1031.9 1031.9 0.0
21/04:30pm 13.8 12.8 11.1 84 1.4 S 7 9 4 5 1031.9 1031.9 0.0
21/04:00pm 14.1 12.8 11.3 83 1.5 S 9 11 5 6 1032.1 1032.1 0.0
21/03:45pm 14.3 13.1 11.6 84 1.4 SSE 9 13 5 7 1032.2 1032.2 0.0
21/03:30pm 14.5 13.4 11.8 84 1.5 SE 9 13 5 7 1032.3 1032.3 0.0
21/03:00pm 14.6 13.4 11.6 82 1.6 SSW 9 13 5 7 1032.4 1032.4 0.0
21/02:30pm 14.9 13.2 11.3 79 1.9 SSE 11 15 6 8 1032.4 1032.4 0.0
21/02:00pm 15.1 13.8 11.3 78 2.0 SSW 9 15 5 8 1032.5 1032.5 0.0
21/01:30pm 14.9 13.9 10.9 77 2.1 S 7 9 4 5 1032.7 1032.7 0.0
21/01:00pm 15.0 14.1 10.6 75 2.3 SSE 6 9 3 5 1033.0 1033.0 0.0
21/12:30pm 14.8 13.3 10.6 76 2.2 SSW 9 13 5 7 1033.4 1033.4 0.0
21/12:00pm 14.5 13.4 9.9 74 2.4 SSE 6 11 3 6 1034.1 1034.1 0.0
21/11:30am 14.5 12.9 10.3 76 2.2 SE 9 11 5 6 1034.4 1034.4 0.0
21/11:00am 14.1 12.8 10.1 77 2.1 SSE 7 11 4 6 1034.6 1034.6 0.0
21/10:30am 13.4 12.4 10.2 81 1.6 ESE 6 9 3 5 1034.8 1034.8 0.0
21/10:00am 12.2 10.8 9.6 84 1.3 ESE 7 9 4 5 1035.0 1035.0 0.0
21/09:30am 11.8 10.4 9.7 87 1.1 ESE 7 9 4 5 1035.1 1035.1 0.0
21/09:00am 11.3 11.2 9.4 88 0.9 CALM 0 0 0 0 1035.3 1035.3 0.0
21/08:30am 10.6 10.4 9.2 91 0.7 CALM 0 6 0 3 1035.3 1035.3 0.0
21/08:00am 9.8 8.3 8.6 92 0.6 NE 6 9 3 5 1035.4 1035.4 0.0
21/07:30am 9.5 8.0 8.4 93 0.5 NE 6 7 3 4 1035.2 1035.2 0.0
21/07:00am 9.1 7.9 8.2 94 0.4 E 4 6 2 3 1034.9 1034.9 0.0
21/06:30am 9.2 7.7 8.3 94 0.4 ENE 6 9 3 5 1034.8 1034.8 0.0
21/06:00am 9.0 7.2 8.1 94 0.4 NE 7 9 4 5 1034.9 1034.9 0.0
21/05:30am 8.8 7.2 8.0 95 0.4 ENE 6 7 3 4 1034.9 1034.9 0.0
21/05:00am 8.3 6.6 7.5 95 0.4 E 6 6 3 3 1034.8 1034.8 0.0
21/04:30am 8.4 6.5 7.6 95 0.4 ENE 7 9 4 5 1034.7 1034.7 0.0
21/04:00am 8.0 6.0 7.2 95 0.4 ENE 7 9 4 5 1034.6 1034.6 0.0
21/03:30am 7.9 5.5 7.1 95 0.4 NE 9 11 5 6 1034.5 1034.5 0.0
21/03:00am 7.4 5.3 6.5 94 0.4 ENE 7 11 4 6 1034.5 1034.5 0.0
21/02:30am 8.0 5.6 7.1 94 0.4 NE 9 11 5 6 1034.7 1034.7 0.0
21/02:00am 8.1 6.1 7.0 93 0.5 NNE 7 11 4 6 1034.9 1034.9 0.0
21/01:30am 8.4 6.0 7.2 92 0.6 NE 9 11 5 6 1034.9 1034.9 0.0
21/01:00am 8.4 6.5 6.9 90 0.7 ENE 6 7 3 4 1034.9 1034.9 0.0
21/12:30am 9.0 7.1 7.6 91 0.7 NE 7 9 4 5 1035.0 1035.0 0.0
21/12:00am 9.2 7.9 7.8 91 0.7 NE 4 9 2 5 1035.1 1035.1 0.0
 
Date/Time
EST
Temp
°C
App
Temp
°C
Dew
Point
Rel
Hum
%
Delta-T
°C
Wind Press
QNH
hPa
Press
MSL
hPa
Rain
since 9 am
mm
Dir
 
Spd
km/h
Gust
km/h
Spd
kts
Gust
kts
20/11:30pm 8.9 7.2 7.4 90 0.7 NE 6 9 3 5 1035.2 1035.2 0.0
20/11:00pm 8.9 7.1 7.2 89 0.8 NE 6 9 3 5 1035.3 1035.3 0.0
20/10:30pm 9.4 7.1 7.5 88 0.9 NE 9 11 5 6 1035.4 1035.4 0.0
20/10:00pm 9.7 7.5 7.8 88 0.9 NNE 9 13 5 7 1035.7 1035.7 0.0
20/09:30pm 9.6 7.4 8.0 90 0.8 NNE 9 11 5 6 1035.9 1035.9 0.0
20/09:00pm 9.6 7.5 8.2 91 0.7 NNE 9 13 5 7 1035.8 1035.8 0.0
20/08:30pm 9.4 7.3 8.2 92 0.6 NNE 9 13 5 7 1035.8 1035.8 0.0
20/08:00pm 9.1 6.9 7.7 91 0.7 NNE 9 13 5 7 1035.7 1035.7 0.0
20/07:30pm 9.3 7.4 7.7 90 0.8 NE 7 9 4 5 1035.7 1035.7 0.0
20/07:00pm 9.8 8.0 8.1 89 0.8 NE 7 9 4 5 1035.8 1035.8 0.0
20/06:30pm 10.1 7.9 8.0 87 1.0 NNE 9 11 5 6 1035.6 1035.6 0.0
20/06:00pm 10.7 8.7 8.5 86 1.1 NE 9 11 5 6 1035.6 1035.6 0.0
20/05:30pm 11.2 9.2 8.6 84 1.3 NE 9 13 5 7 1035.6 1035.6 0.0
20/05:00pm 11.4 9.4 8.6 83 1.4 NNW 9 13 5 7 1035.7 1035.7 0.0
20/04:30pm 11.9 10.2 8.4 79 1.7 NNW 7 11 4 6 1035.7 1035.7 0.0
20/04:00pm 12.1 10.0 8.2 77 1.9 NNW 9 11 5 6 1035.6 1035.6 0.0
20/03:30pm 12.6 10.1 8.3 75 2.1 NNW 11 15 6 8 1035.7 1035.7 0.0
20/03:00pm 11.9 9.0 8.2 78 1.8 NW 13 17 7 9 1035.8 1035.8 0.0
20/02:30pm 12.7 9.2 7.0 68 2.7 NW 15 20 8 11 1036.1 1036.1 0.0
20/02:00pm 13.2 9.5 6.5 64 3.2 NW 15 20 8 11 1036.1 1036.1 0.0
20/01:30pm 13.2 9.5 6.5 64 3.2 NW 15 20 8 11 1036.3 1036.3 0.0
20/01:00pm 13.7 9.7 6.8 63 3.3 NNW 17 24 9 13 1036.4 1036.4 0.0
20/12:30pm 14.6 10.9 6.4 58 4.0 NW 15 20 8 11 1036.7 1036.7 0.0
20/12:00pm 14.1 10.3 7.6 65 3.2 NW 17 20 9 11 1037.0 1037.0 0.0
20/11:30am 13.3 9.8 7.1 66 3.0 NW 15 20 8 11 1037.5 1037.5 0.0
20/11:00am 14.2 11.3 8.2 67 3.0 NNW 13 17 7 9 1037.5 1037.5 0.0
20/10:30am 13.0 10.0 7.5 69 2.7 NNW 13 19 7 10 1037.4 1037.4 0.0
20/10:00am 12.3 9.7 7.6 73 2.3 NE 11 15 6 8 1037.4 1037.4 0.0
20/09:30am 10.8 7.6 6.9 77 1.8 NNE 13 19 7 10 1037.3 1037.3 0.0
20/09:00am 9.5 5.9 6.6 82 1.3 NNE 15 20 8 11 1037.3 1037.3 1.2
20/08:30am 8.2 4.9 6.2 87 0.9 NNE 13 19 7 10 1037.2 1037.2 1.2
20/08:00am 6.4 2.9 5.4 93 0.4 NNE 13 17 7 9 1037.2 1037.2 1.2
20/07:30am 5.6 2.3 4.6 93 0.4 NNE 11 15 6 8 1036.9 1036.9 1.2
20/07:00am 5.8 2.2 4.9 94 0.4 NNE 13 17 7 9 1036.6 1036.6 1.2
20/06:30am 5.7 3.2 5.0 95 0.3 NNE 7 11 4 6 1036.5 1036.5 1.2
20/06:00am 5.3 1.6 4.6 95 0.3 NE 13 17 7 9 1036.4 1036.4 1.2
20/05:30am 5.3 1.6 4.6 95 0.3 NNE 13 15 7 8 1036.3 1036.3 1.2
20/05:00am 5.2 2.6 4.3 94 0.4 ENE 7 13 4 7 1036.2 1036.2 1.2
20/04:30am 5.4 3.0 4.5 94 0.4 ENE 6 7 3 4 1036.1 1036.1 1.2
20/04:00am 5.1 2.5 4.2 94 0.4 ENE 7 13 4 7 1035.8 1035.8 1.2
20/03:30am 4.7 0.9 4.0 95 0.3 NNE 13 20 7 11 1035.3 1035.3 1.0
20/03:00am 4.5 1.1 3.8 95 0.3 NNE 11 13 6 7 1035.5 1035.5 1.0
20/02:30am 4.2 1.1 3.5 95 0.3 NNE 9 13 5 7 1035.6 1035.6 1.0
20/02:00am 4.3 0.8 3.6 95 0.3 NE 11 13 6 7 1035.7 1035.7 1.0
20/01:30am 4.2 1.7 3.5 95 0.3 ESE 6 7 3 4 1035.6 1035.6 1.0
20/01:00am 4.6 1.6 3.9 95 0.3 NE 9 13 5 7 1035.4 1035.4 1.0
20/12:30am 4.7 2.1 4.0 95 0.3 NNE 7 11 4 6 1035.5 1035.5 1.0
20/12:00am 5.1 1.8 4.4 95 0.3 NE 11 15 6 8 1035.3 1035.3 1.0
 
Date/Time
EST
Temp
°C
App
Temp
°C
Dew
Point
Rel
Hum
%
Delta-T
°C
Wind Press
QNH
hPa
Press
MSL
hPa
Rain
since 9 am
mm
Dir
 
Spd
km/h
Gust
km/h
Spd
kts
Gust
kts
19/11:30pm 5.3 2.0 4.6 95 0.3 NNE 11 15 6 8 1035.5 1035.5 0.8
19/11:00pm 5.0 1.7 4.3 95 0.3 NE 11 15 6 8 1035.4 1035.4 0.8
19/10:30pm 5.2 2.3 4.5 95 0.3 NE 9 13 5 7 1035.3 1035.3 0.8
19/10:00pm 5.3 2.0 4.6 95 0.3 N 11 15 6 8 1035.4 1035.4 0.8
19/09:30pm 5.9 3.1 5.0 94 0.4 NNE 9 15 5 8 1035.1 1035.1 0.8
19/09:00pm 5.7 3.2 4.8 94 0.4 NNE 7 11 4 6 1034.8 1034.8 0.8
19/08:30pm 5.6 2.7 4.7 94 0.4 NNE 9 13 5 7 1034.3 1034.3 0.8
19/08:00pm 5.7 2.4 4.7 93 0.4 NE 11 13 6 7 1034.0 1034.0 0.8
19/07:30pm 6.3 3.0 4.8 90 0.7 NE 11 13 6 7 1033.6 1033.6 0.8
19/07:00pm 6.7 4.2 5.0 89 0.7 ENE 7 9 4 5 1033.2 1033.2 0.8
19/06:30pm 7.1 4.9 5.3 88 0.8 SSE 6 9 3 5 1032.7 1032.7 0.8
19/06:00pm 7.5 5.1 5.3 86 1.0 S 7 17 4 9 1032.3 1032.3 0.8
19/05:30pm 8.7 5.8 4.9 77 1.7 SSE 9 13 5 7 1031.7 1031.7 0.2
19/05:00pm 10.4 7.7 5.4 71 2.3 S 9 13 5 7 1031.4 1031.4 0.0
19/04:30pm 10.5 7.2 4.4 66 2.7 SSW 11 17 6 9 1031.1 1031.1 0.0
19/04:00pm 10.4 6.2 3.7 63 2.9 S 15 20 8 11 1030.8 1030.8 0.0
19/03:30pm 12.2 7.5 2.9 53 4.1 SW 17 24 9 13 1030.5 1030.5 0.0
19/03:00pm 10.6 4.6 3.4 61 3.1 WSW 24 35 13 19 1030.4 1030.4 0.0
19/02:30pm 12.7 7.2 2.0 48 4.6 SW 20 28 11 15 1030.0 1030.0 0.0
19/02:00pm 12.8 7.0 2.1 48 4.6 SW 22 30 12 16 1029.7 1029.7 0.0
19/01:30pm 13.1 8.0 3.2 51 4.4 S 19 28 10 15 1029.5 1029.5 0.0
19/01:00pm 12.0 5.2 0.5 45 4.7 SSW 26 33 14 18 1029.1 1029.1 0.0
19/12:30pm 12.7 5.7 1.7 47 4.7 SSW 28 35 15 19 1028.9 1028.9 0.0
19/12:00pm 12.1 6.0 2.6 52 4.1 S 24 35 13 19 1028.7 1028.7 0.0
19/11:30am 11.6 7.8 3.9 59 3.4 SSE 13 20 7 11 1028.3 1028.3 0.0
19/11:00am 10.4 7.5 4.5 67 2.6 SSE 9 13 5 7 1028.1 1028.1 0.0
19/10:30am 9.7 5.7 4.7 71 2.2 ESE 15 22 8 12 1027.5 1027.5 0.0
19/10:00am 9.6 3.6 5.2 74 2.0 SE 26 35 14 19 1027.3 1027.3 0.0
19/09:30am 8.7 5.2 5.4 80 1.5 SSE 13 22 7 12 1026.6 1026.6 0.0
19/09:00am 8.5 5.3 6.8 89 0.8 SE 13 19 7 10 1026.2 1026.2 19.6
19/08:40am 6.4 1.6 4.6 88 0.8 S 19 35 10 19 1026.0 1026.0 19.6
19/08:30am 6.3 0.5 4.5 88 0.8 S 24 43 13 23 1026.1 1026.1 19.6
19/08:20am 5.3 -0.5 2.1 80 1.3 S 22 54 12 29 1026.1 1026.1 19.2
19/08:19am 5.9 0.7 2.4 78 1.4 S 19 52 10 28 1026.0 1026.0 18.6
19/08:00am 8.4 4.0 5.0 79 1.5 SE 17 24 9 13 1024.9 1024.9 17.4
19/07:30am 7.2 1.7 4.0 80 1.4 SSE 22 35 12 19 1024.2 1024.2 17.4
19/07:00am 7.5 2.7 2.8 72 2.0 S 17 22 9 12 1023.2 1023.2 17.2
19/06:30am 6.4 1.3 2.9 78 1.5 SSW 19 24 10 13 1022.5 1022.5 17.2
19/06:00am 6.5 1.5 3.7 82 1.2 SSW 19 26 10 14 1021.8 1021.8 17.2
19/05:30am 7.1 2.0 4.2 82 1.3 SSW 20 32 11 17 1021.1 1021.1 17.2
19/05:00am 7.1 1.6 1.6 68 2.2 SSW 20 26 11 14 1020.4 1020.4 17.0
19/04:30am 8.4 2.5 3.7 72 2.0 SSW 24 33 13 18 1019.6 1019.6 17.0

Other Formats:

Comma delimited format used in spreadsheet applications
http://www.bom.gov.au/fwo/IDT60801/IDT60801.94956.axf

JavaScript Object Notation format (JSON) in row-major order
http://www.bom.gov.au/fwo/IDT60801/IDT60801.94956.json